createdAt,value
2019-03-29T00:00:27.762Z,5.10
2019-03-29T00:06:30.571Z,4.77
2019-03-29T00:12:33.280Z,4.57
2019-03-29T00:18:36.113Z,4.50
2019-03-29T00:24:39.227Z,4.13
2019-03-29T00:30:41.948Z,4.67
2019-03-29T00:36:44.757Z,4.30
2019-03-29T00:42:47.496Z,4.80
2019-03-29T00:48:50.520Z,3.93
2019-03-29T00:54:53.240Z,3.93
2019-03-29T01:00:56.337Z,3.30
2019-03-29T01:06:59.060Z,3.63
2019-03-29T01:13:01.792Z,3.90
2019-03-29T01:19:04.520Z,3.53
2019-03-29T01:25:08.257Z,4.03
2019-03-29T01:31:11.369Z,4.00
2019-03-29T01:37:14.112Z,3.50
2019-03-29T01:43:16.912Z,3.27
2019-03-29T01:49:19.914Z,3.70
2019-03-29T01:55:23.078Z,3.50
2019-03-29T02:01:26.179Z,3.27
2019-03-29T02:07:28.904Z,3.57
2019-03-29T02:13:31.633Z,3.67
2019-03-29T02:19:34.364Z,2.93
2019-03-29T02:25:37.091Z,2.93
2019-03-29T02:31:42.185Z,3.23
2019-03-29T02:37:44.612Z,3.10
2019-03-29T02:43:47.354Z,3.20
2019-03-29T02:49:50.386Z,2.90
2019-03-29T02:55:53.397Z,2.77
2019-03-29T03:01:56.411Z,3.00
2019-03-29T03:07:59.137Z,2.80
2019-03-29T03:14:01.869Z,2.97
2019-03-29T03:20:14.311Z,2.97
2019-03-29T03:26:13.828Z,2.67
2019-03-29T03:32:16.670Z,2.80
2019-03-29T03:38:19.482Z,2.67
2019-03-29T03:44:22.241Z,2.40
2019-03-29T03:50:39.409Z,2.50
2019-03-29T03:56:42.202Z,2.80
2019-03-29T04:02:45.022Z,2.50
2019-03-29T04:08:47.789Z,2.23
2019-03-29T04:14:50.525Z,2.20
2019-03-29T04:20:53.252Z,2.50
2019-03-29T04:26:55.993Z,2.30
2019-03-29T04:32:58.721Z,2.27
2019-03-29T04:39:01.803Z,2.50
2019-03-29T04:45:05.293Z,1.97
2019-03-29T04:51:08.023Z,2.13
2019-03-29T04:57:10.758Z,2.10
2019-03-29T05:03:13.480Z,1.90
2019-03-29T05:09:16.284Z,1.90
2019-03-29T05:15:19.020Z,2.10
2019-03-29T05:21:21.749Z,1.83
2019-03-29T05:27:24.649Z,2.10
2019-03-29T05:33:27.384Z,2.10
2019-03-29T05:39:30.124Z,1.70
2019-03-29T05:45:33.172Z,1.80
2019-03-29T05:51:36.149Z,1.90
2019-03-29T05:57:38.880Z,1.73
2019-03-29T06:03:41.622Z,1.87
2019-03-29T06:09:44.348Z,1.53
2019-03-29T06:15:47.080Z,2.00
2019-03-29T06:21:49.853Z,1.73
2019-03-29T06:27:52.588Z,1.83
2019-03-29T06:33:55.338Z,1.60
2019-03-29T06:39:58.428Z,1.57
2019-03-29T06:46:01.160Z,1.80
2019-03-29T06:52:03.900Z,1.50
2019-03-29T06:58:06.962Z,1.70
2019-03-29T07:04:09.693Z,1.83
2019-03-29T07:10:12.427Z,1.67
2019-03-29T07:16:15.152Z,1.70
2019-03-29T07:22:18.028Z,1.30
2019-03-29T07:28:21.105Z,1.60
2019-03-29T07:34:23.832Z,1.50
2019-03-29T07:40:26.573Z,1.40
2019-03-29T07:46:29.303Z,1.40
2019-03-29T07:52:32.060Z,1.63
2019-03-29T07:58:34.795Z,1.43
2019-03-29T08:04:37.573Z,1.47
2019-03-29T08:10:40.363Z,1.93
2019-03-29T08:16:43.096Z,2.30
2019-03-29T08:22:45.835Z,2.20
2019-03-29T08:28:48.576Z,2.00
2019-03-29T08:34:51.313Z,2.43
2019-03-29T08:40:54.040Z,2.30
2019-03-29T08:46:57.060Z,1.90
2019-03-29T08:52:59.796Z,2.10
2019-03-29T08:59:02.575Z,2.50
2019-03-29T09:05:05.893Z,1.83
2019-03-29T09:11:08.624Z,2.20
2019-03-29T09:17:11.349Z,3.93
2019-03-29T09:23:14.084Z,4.30
2019-03-29T09:29:16.812Z,4.20
2019-03-29T09:35:19.548Z,4.23
2019-03-29T09:41:22.300Z,4.60
2019-03-29T09:47:25.041Z,3.93
2019-03-29T09:53:27.770Z,4.23
2019-03-29T09:59:30.491Z,4.43
2019-03-29T10:05:35.068Z,5.33
2019-03-29T10:11:37.788Z,4.93
2019-03-29T10:17:40.512Z,5.50
2019-03-29T10:23:43.501Z,5.83
2019-03-29T10:29:46.561Z,6.37
2019-03-29T10:35:52.465Z,6.30
2019-03-29T10:41:53.821Z,6.80
2019-03-29T10:47:56.876Z,5.90
2019-03-29T10:53:59.608Z,6.10
2019-03-29T11:00:04.331Z,6.00
2019-03-29T11:06:07.056Z,6.67
2019-03-29T11:12:09.792Z,6.87
2019-03-29T11:18:12.588Z,7.50
2019-03-29T11:24:15.324Z,7.83
2019-03-29T11:30:18.370Z,7.80
2019-03-29T11:36:21.107Z,8.03
2019-03-29T11:42:23.844Z,7.87
2019-03-29T11:48:29.408Z,8.60
2019-03-29T11:54:31.064Z,8.33
2019-03-29T12:00:36.092Z,8.67
2019-03-29T12:06:38.815Z,8.33
2019-03-29T12:12:41.550Z,7.27
2019-03-29T12:18:44.281Z,7.20
2019-03-29T12:24:47.012Z,7.10
2019-03-29T12:30:49.748Z,7.03
2019-03-29T12:36:52.515Z,6.50
2019-03-29T12:42:55.255Z,6.33
2019-03-29T12:48:57.984Z,6.27
2019-03-29T12:55:00.715Z,5.97
2019-03-29T13:01:03.737Z,5.67
2019-03-29T13:07:06.460Z,5.87
2019-03-29T13:13:09.552Z,6.10
2019-03-29T13:19:12.285Z,5.27
2019-03-29T13:25:15.022Z,5.73
2019-03-29T13:31:18.076Z,5.10
2019-03-29T13:37:20.799Z,4.57
2019-03-29T13:43:23.768Z,4.57
2019-03-29T13:49:26.508Z,4.40
2019-03-29T13:55:29.236Z,4.00
2019-03-29T14:01:31.967Z,4.30
2019-03-29T14:07:34.688Z,4.50
2019-03-29T14:13:37.416Z,3.63
2019-03-29T14:19:40.151Z,4.17
2019-03-29T14:25:42.880Z,3.80
2019-03-29T14:31:45.611Z,3.87
2019-03-29T14:37:48.356Z,4.07
2019-03-29T14:43:51.075Z,3.97
2019-03-29T14:49:53.799Z,4.07
2019-03-29T14:55:56.545Z,3.47
2019-03-29T15:01:59.277Z,3.60
2019-03-29T15:08:02.100Z,3.77
2019-03-29T15:14:10.688Z,3.30
2019-03-29T15:20:14.930Z,3.27
2019-03-29T15:26:17.728Z,3.27
2019-03-29T15:32:20.455Z,3.10
2019-03-29T15:38:23.194Z,2.93
2019-03-29T15:44:26.000Z,3.10
2019-03-29T15:50:28.732Z,2.93
2019-03-29T15:56:31.463Z,2.97
2019-03-29T16:02:34.484Z,2.60
2019-03-29T16:08:37.217Z,2.70
2019-03-29T16:14:39.948Z,2.57
2019-03-29T16:20:42.680Z,2.60
2019-03-29T16:26:45.408Z,2.10
2019-03-29T16:32:48.147Z,2.10
2019-03-29T16:38:50.878Z,2.70
2019-03-29T16:44:53.616Z,2.23
2019-03-29T16:50:56.380Z,2.10
2019-03-29T16:56:59.108Z,2.10
2019-03-29T17:03:01.845Z,2.10
2019-03-29T17:09:06.016Z,2.40
2019-03-29T17:15:08.748Z,2.17
2019-03-29T17:21:11.921Z,3.00
2019-03-29T17:27:14.793Z,3.47
2019-03-29T17:33:17.540Z,3.90
2019-03-29T17:39:22.152Z,4.20
2019-03-29T17:45:25.125Z,5.00
2019-03-29T17:51:27.858Z,5.13
2019-03-29T17:57:30.620Z,5.43
2019-03-29T18:03:33.348Z,5.63
2019-03-29T18:09:36.119Z,5.70
2019-03-29T18:15:38.852Z,6.10
2019-03-29T18:21:41.904Z,6.20
2019-03-29T18:27:44.644Z,6.20
2019-03-29T18:33:47.716Z,6.30
2019-03-29T18:39:50.452Z,7.30
2019-03-29T18:45:53.188Z,8.30
2019-03-29T18:51:55.956Z,10.10
2019-03-29T18:57:58.683Z,11.73
2019-03-29T19:04:01.486Z,13.90
2019-03-29T19:10:05.704Z,12.20
2019-03-29T19:16:08.448Z,13.07
2019-03-29T19:22:11.186Z,14.80
2019-03-29T19:28:13.937Z,15.70
2019-03-29T19:34:16.848Z,14.13
2019-03-29T19:40:19.604Z,12.43
2019-03-29T19:46:22.344Z,10.77
2019-03-29T19:52:25.385Z,9.50
2019-03-29T19:58:28.417Z,8.47
2019-03-29T20:04:31.213Z,8.10
2019-03-29T20:10:33.948Z,7.80
2019-03-29T20:16:36.679Z,7.23
2019-03-29T20:22:39.407Z,6.23
2019-03-29T20:28:42.156Z,6.40
2019-03-29T20:34:45.283Z,5.80
2019-03-29T20:40:48.215Z,6.67
2019-03-29T20:46:51.028Z,6.70
2019-03-29T20:52:53.753Z,6.30
2019-03-29T20:58:56.724Z,6.40
2019-03-29T21:04:59.457Z,6.47
2019-03-29T21:11:02.219Z,6.10
2019-03-29T21:17:05.332Z,5.47
2019-03-29T21:23:08.061Z,5.57
2019-03-29T21:29:10.855Z,5.70
2019-03-29T21:35:13.579Z,5.90
2019-03-29T21:41:16.309Z,5.90
2019-03-29T21:47:19.337Z,5.70
2019-03-29T21:53:22.080Z,5.33
2019-03-29T21:59:25.232Z,6.13
2019-03-29T22:05:28.112Z,6.37
2019-03-29T22:11:31.173Z,5.77
2019-03-29T22:17:33.948Z,6.40
2019-03-29T22:23:36.686Z,5.27
2019-03-29T22:29:39.416Z,6.07
2019-03-29T22:35:42.149Z,5.60
2019-03-29T22:41:44.886Z,5.30
2019-03-29T22:47:47.723Z,5.80
2019-03-29T22:53:50.515Z,5.20
2019-03-29T22:59:53.237Z,5.60
2019-03-29T23:05:56.033Z,4.70
2019-03-29T23:11:58.772Z,5.03
2019-03-29T23:18:01.500Z,5.13
2019-03-29T23:24:04.244Z,5.00
2019-03-29T23:30:07.249Z,5.13
2019-03-29T23:36:29.550Z,5.20
2019-03-29T23:42:32.280Z,4.63
2019-03-29T23:48:35.005Z,4.83
2019-03-29T23:54:38.056Z,4.80
